createdAt,value
2022-12-08T04:08:31.461Z,98356.80
2022-12-08T04:10:58.476Z,98354.84
2022-12-08T04:13:25.476Z,98359.28
2022-12-08T04:15:52.359Z,98359.69
2022-12-08T04:18:19.246Z,98360.21
2022-12-08T04:20:46.071Z,98364.19
2022-12-08T04:23:13.390Z,98368.16
2022-12-08T04:25:40.533Z,98366.89
2022-12-08T04:28:07.464Z,98367.89
2022-12-08T04:30:35.112Z,98370.80
2022-12-08T04:33:02.035Z,98370.61
2022-12-08T04:35:28.928Z,98370.04
2022-12-08T04:37:56.531Z,98366.45
2022-12-08T04:40:23.936Z,98368.44
2022-12-08T04:42:50.739Z,98368.62
2022-12-08T04:45:18.161Z,98368.55
2022-12-08T04:47:45.293Z,98374.60
2022-12-08T04:50:13.132Z,98372.66
2022-12-08T04:52:40.232Z,98371.06
2022-12-08T04:55:07.415Z,98373.02
2022-12-08T04:57:34.405Z,98373.50
2022-12-08T05:00:01.347Z,98374.41
2022-12-08T05:03:09.514Z,98372.25
2022-12-08T05:05:36.451Z,98375.27
2022-12-08T05:08:03.407Z,98373.48
2022-12-08T05:10:31.239Z,98375.98
2022-12-08T05:12:59.165Z,98374.38
2022-12-08T05:15:25.991Z,98377.04
2022-12-08T05:17:54.128Z,98376.89
2022-12-08T05:20:21.419Z,98381.30
2022-12-08T05:22:48.328Z,98378.26
2022-12-08T05:25:15.149Z,98380.73
2022-12-08T05:27:43.129Z,98381.66
2022-12-08T05:30:10.474Z,98389.39
2022-12-08T05:32:37.361Z,98391.30
2022-12-08T05:35:04.361Z,98389.89
2022-12-08T05:37:31.447Z,98389.77
2022-12-08T05:39:58.308Z,98388.48
2022-12-08T05:42:25.616Z,98391.98
2022-12-08T05:44:53.074Z,98399.96
2022-12-08T05:47:19.892Z,98401.41
2022-12-08T05:49:46.736Z,98403.42
2022-12-08T05:52:17.038Z,98404.74
2022-12-08T05:54:44.314Z,98404.83
2022-12-08T05:57:11.164Z,98404.05
2022-12-08T05:59:39.065Z,98402.96
2022-12-08T06:02:06.269Z,98407.95
2022-12-08T06:04:33.476Z,98410.08
2022-12-08T06:07:00.844Z,98412.45
2022-12-08T06:09:27.828Z,98410.34
2022-12-08T06:11:54.731Z,98413.48
2022-12-08T06:14:21.607Z,98414.71
2022-12-08T06:16:48.542Z,98417.48
2022-12-08T06:19:15.807Z,98418.19
2022-12-08T06:21:42.671Z,98421.22
2022-12-08T06:24:09.635Z,98417.93
2022-12-08T06:26:37.021Z,98420.02
2022-12-08T06:29:05.085Z,98419.80
2022-12-08T06:31:32.265Z,98423.45
2022-12-08T06:33:59.303Z,98424.96
2022-12-08T06:36:26.972Z,98428.04
2022-12-08T06:38:53.860Z,98428.86
2022-12-08T06:41:20.798Z,98427.31
2022-12-08T06:43:47.871Z,98429.86
2022-12-08T06:46:16.262Z,98426.60
2022-12-08T06:48:43.328Z,98429.90
2022-12-08T06:51:15.578Z,98430.36
2022-12-08T06:53:42.826Z,98428.77
2022-12-08T06:56:10.048Z,98433.83
2022-12-08T06:58:37.161Z,98433.54
2022-12-08T07:01:08.779Z,98435.83
2022-12-08T07:03:36.967Z,98433.64
2022-12-08T07:06:04.699Z,98438.56
2022-12-08T07:08:33.935Z,98439.29
2022-12-08T07:11:06.867Z,98441.06
2022-12-08T07:13:33.710Z,98443.20
2022-12-08T07:16:00.561Z,98440.83
2022-12-08T07:18:27.506Z,98444.11
2022-12-08T07:20:54.361Z,98441.16
2022-12-08T07:23:21.206Z,98444.94
2022-12-08T07:25:48.140Z,98446.17
2022-12-08T10:48:37.188Z,98418.80
2022-12-08T10:51:05.749Z,98414.20
2022-12-08T10:53:33.249Z,98415.16
2022-12-08T10:56:02.962Z,98412.83
2022-12-08T10:58:36.608Z,98416.31
2022-12-08T11:01:06.816Z,98416.94
2022-12-08T11:03:36.392Z,98416.96
2022-12-08T11:06:11.906Z,98413.50
2022-12-08T11:08:57.235Z,98413.37
2022-12-08T11:11:53.209Z,98414.88
2022-12-08T11:14:30.256Z,98407.98
2022-12-08T11:17:06.402Z,98405.92
2022-12-08T11:19:34.575Z,98406.52
2022-12-08T11:22:01.613Z,98410.75
2022-12-08T11:24:31.200Z,98411.20
2022-12-08T11:27:03.308Z,98412.54
2022-12-08T11:29:31.877Z,98411.39
2022-12-08T11:32:08.233Z,98408.76
2022-12-08T11:34:42.864Z,98408.49
2022-12-08T11:37:20.013Z,98403.70
2022-12-08T11:39:48.994Z,98401.66
2022-12-08T11:42:16.475Z,98403.54
2022-12-08T11:44:58.233Z,98402.93
2022-12-08T11:47:31.394Z,98395.19
2022-12-08T11:50:35.054Z,98385.89
2022-12-08T11:53:02.015Z,98382.00
2022-12-08T11:55:39.437Z,98386.15
2022-12-08T11:58:21.427Z,98377.66
2022-12-08T12:00:48.369Z,98375.41
2022-12-08T12:03:29.890Z,98373.20
2022-12-08T12:06:23.871Z,98367.54
2022-12-08T12:09:06.354Z,98368.17
2022-12-08T12:12:12.594Z,98367.61
2022-12-08T12:15:11.573Z,98372.80
2022-12-08T12:17:54.732Z,98371.74
2022-12-08T12:20:26.144Z,98373.89
2022-12-08T12:23:06.150Z,98368.02
2022-12-08T12:25:34.091Z,98362.45
2022-12-08T12:28:03.558Z,98357.98
2022-12-08T12:30:52.840Z,98359.70
2022-12-08T12:33:20.022Z,98356.46
2022-12-08T12:35:49.833Z,98361.11
2022-12-08T12:38:53.462Z,98360.56
2022-12-08T12:41:26.405Z,98360.48
2022-12-08T12:44:14.777Z,98364.01
2022-12-08T12:46:50.667Z,98362.20
2022-12-08T12:49:39.213Z,98358.48
2022-12-08T12:52:18.756Z,98355.13
2022-12-08T12:55:11.621Z,98359.80
2022-12-08T12:57:40.525Z,98357.66
2022-12-08T13:00:09.968Z,98356.21
2022-12-08T13:02:46.067Z,98354.70
2022-12-08T13:05:23.870Z,98354.20
2022-12-08T13:08:23.205Z,98358.16
2022-12-08T13:11:04.220Z,98357.17
2022-12-08T13:13:31.132Z,98360.58
2022-12-08T13:16:18.849Z,98364.39
2022-12-08T13:18:50.118Z,98360.90
2022-12-08T13:21:18.920Z,98365.08
2022-12-08T13:23:47.743Z,98368.81
2022-12-08T13:26:14.567Z,98369.69
2022-12-08T13:28:59.888Z,98367.27
2022-12-08T13:31:51.794Z,98370.88
2022-12-08T13:34:42.348Z,98370.56
2022-12-08T13:37:12.332Z,98372.11
2022-12-08T13:39:39.252Z,98372.94
2022-12-08T13:42:12.474Z,98373.70
2022-12-08T13:47:39.131Z,98371.48
2022-12-08T13:59:19.662Z,98372.30
2022-12-08T14:01:48.392Z,98377.67
2022-12-08T14:04:42.665Z,98377.84
2022-12-08T14:07:08.637Z,98378.02
2022-12-08T14:09:36.625Z,98377.38
2022-12-08T14:12:36.023Z,98376.30
2022-12-08T14:15:05.928Z,98377.07
2022-12-08T14:17:33.731Z,98377.09
2022-12-08T14:20:01.505Z,98379.17
2022-12-08T14:22:36.272Z,98384.02
2022-12-08T14:25:04.349Z,98377.95
2022-12-08T14:27:33.676Z,98371.71
2022-12-08T14:30:01.922Z,98369.29
2022-12-08T14:32:31.838Z,98372.19
2022-12-08T14:35:28.902Z,98372.52
2022-12-08T14:37:58.562Z,98373.84
2022-12-08T14:40:29.916Z,98374.42
2022-12-08T14:43:09.335Z,98373.87
2022-12-08T14:45:39.060Z,98375.61
2022-12-08T14:48:44.865Z,98376.73
2022-12-08T14:51:20.917Z,98373.99
2022-12-08T14:53:58.786Z,98366.92
2022-12-08T14:56:36.406Z,98367.58
2022-12-08T14:59:09.499Z,98367.45
2022-12-08T15:01:36.471Z,98366.11
2022-12-08T15:04:24.732Z,98366.36
2022-12-08T15:07:01.126Z,98371.73
2022-12-08T15:09:34.586Z,98371.41
2022-12-08T15:12:06.055Z,98370.80
2022-12-08T15:14:34.821Z,98379.09
2022-12-08T15:17:02.357Z,98375.48
2022-12-08T15:19:33.027Z,98372.77
2022-12-08T15:22:13.953Z,98372.33
2022-12-08T15:24:40.781Z,98370.95
2022-12-08T15:27:07.603Z,98370.31
2022-12-08T15:29:34.561Z,98370.80
2022-12-08T15:32:01.658Z,98371.80
2022-12-08T15:34:28.851Z,98369.18
2022-12-08T15:36:55.663Z,98374.14
2022-12-08T15:39:33.910Z,98375.17
2022-12-08T15:42:01.742Z,98374.27
2022-12-08T15:44:29.354Z,98375.64
2022-12-08T15:46:56.340Z,98375.19
2022-12-08T15:49:23.866Z,98379.63
2022-12-08T15:51:55.696Z,98381.85
2022-12-08T15:54:27.633Z,98382.45
2022-12-08T15:57:18.500Z,98386.82
2022-12-08T15:59:43.249Z,98383.78
2022-12-08T16:02:14.546Z,98388.71
2022-12-08T16:07:31.400Z,98382.80
2022-12-08T16:09:58.464Z,98379.94
2022-12-08T16:15:51.606Z,98380.76
2022-12-08T16:18:24.144Z,98376.19
2022-12-08T16:23:45.646Z,98368.92
2022-12-08T16:26:35.470Z,98363.79
2022-12-08T16:29:04.624Z,98364.37
2022-12-08T16:31:33.427Z,98362.89
2022-12-08T16:34:00.399Z,98363.77
2022-12-08T16:36:27.243Z,98376.41
2022-12-08T16:38:54.147Z,98369.86
2022-12-08T16:41:39.868Z,98370.70
2022-12-08T16:44:06.753Z,98368.02
2022-12-08T16:46:33.765Z,98360.91
2022-12-08T16:49:00.654Z,98355.84
2022-12-08T16:51:27.851Z,98347.98
2022-12-08T16:53:55.568Z,98360.98
2022-12-08T16:56:26.228Z,98365.11
2022-12-08T16:58:57.471Z,98376.41
2022-12-08T17:01:24.380Z,98376.97
2022-12-08T17:04:22.557Z,98365.35
2022-12-08T17:06:38.512Z,98350.56
2022-12-08T17:09:05.765Z,98350.66
2022-12-08T17:11:36.275Z,98351.73
2022-12-08T17:14:09.222Z,98357.87
2022-12-08T17:16:36.505Z,98362.00
2022-12-08T17:19:05.788Z,98365.33
2022-12-08T17:21:32.743Z,98371.31
2022-12-08T17:23:59.580Z,98375.29
2022-12-08T17:26:26.430Z,98367.21
2022-12-08T17:29:01.550Z,98367.30
2022-12-08T17:31:31.049Z,98370.73
2022-12-08T17:34:00.466Z,98363.85
2022-12-08T17:36:27.371Z,98364.66
2022-12-08T17:38:54.554Z,98369.69
2022-12-08T17:41:21.652Z,98366.72
2022-12-08T17:43:48.443Z,98362.92
2022-12-08T17:46:18.981Z,98363.07
2022-12-08T17:48:45.896Z,98361.89
2022-12-08T17:51:12.751Z,98360.48
2022-12-08T17:53:42.690Z,98358.13
2022-12-08T17:56:18.019Z,98356.52
2022-12-08T17:58:46.623Z,98355.32
2022-12-08T18:01:17.390Z,98355.70
2022-12-08T18:03:44.259Z,98356.71
2022-12-08T18:06:12.391Z,98356.28
2022-12-08T18:08:39.816Z,98355.83
2022-12-08T18:11:11.821Z,98352.27
2022-12-08T18:13:38.708Z,98346.48
2022-12-08T18:16:05.780Z,98343.98
2022-12-08T18:18:32.602Z,98338.42
2022-12-08T18:20:59.436Z,98339.66
2022-12-08T19:09:08.134Z,98340.09
2022-12-08T19:11:35.415Z,98331.27
2022-12-08T19:14:02.306Z,98331.54
2022-12-08T19:16:29.335Z,98318.41
2022-12-08T19:18:56.340Z,98311.55
2022-12-08T19:21:24.778Z,98318.98
2022-12-08T19:23:52.743Z,98321.20
2022-12-08T19:26:19.969Z,98317.10
2022-12-08T19:28:46.808Z,98317.05
2022-12-08T19:31:13.953Z,98315.86
2022-12-08T19:33:41.081Z,98317.60
2022-12-08T19:36:09.594Z,98316.47
2022-12-08T19:38:56.513Z,98310.38
2022-12-08T19:41:42.391Z,98309.36
2022-12-08T19:44:34.604Z,98302.11
2022-12-08T19:47:01.842Z,98304.50
2022-12-08T19:49:29.040Z,98302.00
2022-12-08T19:51:55.939Z,98300.24
2022-12-08T19:54:23.414Z,98294.36
2022-12-08T19:56:50.880Z,98290.34
2022-12-08T19:59:18.236Z,98291.16
2022-12-08T20:01:45.498Z,98290.95
2022-12-08T20:04:14.154Z,98294.20
2022-12-08T20:06:41.060Z,98293.61
2022-12-08T20:09:08.220Z,98293.91
2022-12-08T20:11:35.058Z,98284.86
2022-12-08T20:14:01.934Z,98280.30
2022-12-08T20:16:28.928Z,98267.65
2022-12-08T20:18:55.872Z,98269.93
2022-12-08T20:21:22.764Z,98269.02
2022-12-08T20:23:49.952Z,98280.30
2022-12-08T20:26:19.233Z,98284.10
2022-12-08T20:28:46.147Z,98285.00
2022-12-08T20:31:24.724Z,98282.07
2022-12-08T20:33:51.966Z,98282.54
2022-12-08T20:36:19.993Z,98283.34
2022-12-08T20:38:47.869Z,98271.94
2022-12-08T20:41:18.056Z,98264.66
2022-12-08T20:43:45.584Z,98257.27
2022-12-08T20:46:14.393Z,98255.24
2022-12-08T20:48:42.057Z,98254.75
2022-12-08T20:51:13.158Z,98257.06
2022-12-08T20:53:40.289Z,98260.69
2022-12-08T20:56:07.507Z,98265.73
2022-12-08T20:58:34.788Z,98266.38
2022-12-08T21:01:01.864Z,98276.81
2022-12-08T21:03:29.060Z,98279.79
2022-12-08T21:05:56.498Z,98281.00
2022-12-08T21:08:25.953Z,98282.84
2022-12-08T21:10:54.439Z,98288.50
2022-12-08T21:13:21.553Z,98286.55
2022-12-08T21:15:48.638Z,98284.86
2022-12-08T21:18:16.580Z,98282.27
2022-12-08T21:20:43.749Z,98279.30
2022-12-08T21:23:10.828Z,98280.45
2022-12-08T21:25:42.316Z,98275.23
2022-12-08T21:28:10.315Z,98277.79
2022-12-08T21:30:40.792Z,98276.27
2022-12-08T21:33:07.783Z,98276.30
2022-12-08T21:35:34.816Z,98277.77
2022-12-08T21:38:01.849Z,98275.86
2022-12-08T21:40:29.050Z,98274.20
2022-12-08T21:42:56.340Z,98274.45
2022-12-08T21:45:23.368Z,98265.58
2022-12-08T21:47:50.702Z,98265.52
2022-12-08T21:50:18.120Z,98266.68
2022-12-08T21:52:47.249Z,98266.32
2022-12-08T21:55:15.372Z,98262.92
2022-12-08T21:57:42.507Z,98258.98
2022-12-08T22:00:12.232Z,98254.39
2022-12-08T22:02:39.728Z,98254.86
2022-12-08T22:05:07.241Z,98258.64
2022-12-08T22:07:35.002Z,98256.91
2022-12-08T22:10:01.907Z,98258.34
2022-12-08T22:12:29.153Z,98254.59
2022-12-08T22:14:56.091Z,98254.00
2022-12-08T22:17:23.269Z,98251.26
2022-12-08T22:19:50.663Z,98245.73
2022-12-08T22:22:17.710Z,98251.25
2022-12-08T22:24:44.782Z,98249.51
2022-12-08T22:27:12.008Z,98250.18
2022-12-08T22:29:38.852Z,98250.76
2022-12-08T22:32:05.897Z,98246.77
2022-12-08T22:34:33.198Z,98243.59
2022-12-08T22:37:00.243Z,98235.23
2022-12-08T22:39:27.106Z,98233.23
2022-12-08T22:41:54.029Z,98227.79
2022-12-08T22:44:20.972Z,98224.71
2022-12-08T22:46:48.000Z,98217.00
2022-12-08T22:49:14.978Z,98212.81
2022-12-08T22:51:42.296Z,98211.92
2022-12-08T22:54:11.265Z,98213.13
2022-12-08T22:56:38.505Z,98216.10
2022-12-08T22:59:06.255Z,98216.83
2022-12-08T23:01:33.661Z,98209.46
2022-12-08T23:04:00.997Z,98214.38
2022-12-08T23:06:29.257Z,98217.05
2022-12-08T23:08:56.720Z,98213.29
2022-12-08T23:11:27.980Z,98214.49
2022-12-08T23:13:56.321Z,98213.36
2022-12-08T23:16:23.318Z,98211.92
2022-12-08T23:18:50.467Z,98208.75
2022-12-08T23:21:18.561Z,98206.19
2022-12-08T23:23:45.795Z,98209.45
2022-12-08T23:26:26.952Z,98207.00
2022-12-08T23:28:56.072Z,98207.50
2022-12-08T23:31:23.545Z,98209.01
2022-12-08T23:33:50.603Z,98207.60
2022-12-08T23:36:18.362Z,98207.67
2022-12-08T23:38:45.582Z,98203.98
2022-12-08T23:41:14.212Z,98204.64
2022-12-08T23:43:45.492Z,98201.45
2022-12-08T23:46:12.678Z,98199.91
2022-12-08T23:48:39.971Z,98196.41
2022-12-08T23:51:06.872Z,98194.02
2022-12-08T23:53:35.345Z,98191.54
2022-12-08T23:56:03.734Z,98181.61
2022-12-08T23:58:31.255Z,98180.73
